Union City, Georgia
Current Conditions -  °F | °C
As of 11:52 AM on Thursday 18 Dec 2014 (Local Time) from KATL Reporting Station
Broken Clouds Broken Clouds  
Wind Chill: 46°   Ceiling: 6000
Heat Index: 46°   Visibility: 10mi
Dew Point: 32°   Wind: 3mph
Humidity: 58%   Direction: 340°NNW
Pressure: 30.16"   Gusts: NA
Location:  33.58°N, 84.55°W
Report Text: KATL 181652Z 34003KT 10SM BKN060 BKN080 BKN100 08/00 A3016 RMK AO2 SLP218 T00780000
Loading
Personal Weather Stations






























Interactive Weather Map New forecast layout! Learn more

10-Day Weather Forecast

Advertisements
Track Severe Weather on mobile